Time;durP1;ratioP1;P1;durP2;ratioP2;P2;SDS_P1;SDS_P2;PMS_P1;PMS_P2;Temp;Humidity;BMP_temperature;BMP_pressure;BME280_temperature;BME280_humidity;BME280_pressure;Samples;Min_cycle;Max_cycle;Signal;HPM_P1;HPM_P2
2022/12/09 00:01:15;;;;;;;2.43;1.73;;;0.90;99.90;;;;;;5079494;28;20424;-69
2022/12/09 00:03:42;;;;;;;1.40;1.30;;;1.00;99.90;;;;;;5077257;28;20476;-69
2022/12/09 00:06:14;;;;;;;2.67;2.47;;;1.00;99.90;;;;;;5077620;28;20492;-68
2022/12/09 00:08:41;;;;;;;2.92;2.10;;;1.00;99.90;;;;;;5077811;28;20438;-68
2022/12/09 00:11:09;;;;;;;2.47;2.30;;;1.00;99.90;;;;;;5074202;28;20423;-68
2022/12/09 00:13:36;;;;;;;1.60;1.50;;;1.00;99.90;;;;;;5071242;28;20430;-69
2022/12/09 00:16:07;;;;;;;1.87;1.53;;;1.00;99.90;;;;;;5077993;28;21228;-69
2022/12/09 00:18:35;;;;;;;1.95;1.85;;;0.90;99.90;;;;;;5086445;28;21210;-68
2022/12/09 00:21:20;;;;;;;1.83;1.38;;;0.90;99.90;;;;;;5082626;28;21111;-69
2022/12/09 00:23:48;;;;;;;1.80;1.60;;;0.90;99.90;;;;;;5081012;28;20921;-69
2022/12/09 00:26:16;;;;;;;1.35;1.27;;;0.90;99.90;;;;;;5072626;28;20783;-69
2022/12/09 00:28:43;;;;;;;4.72;1.67;;;0.90;99.90;;;;;;5086591;28;20499;-68
2022/12/09 00:31:16;;;;;;;2.03;1.45;;;0.90;99.90;;;;;;5088219;28;20437;-68
2022/12/09 00:33:43;;;;;;;1.57;1.43;;;0.90;1.00;;;;;;5089438;28;20425;-68
2022/12/09 00:36:15;;;;;;;2.72;1.75;;;0.90;99.90;;;;;;5085933;28;20435;-69
2022/12/09 00:38:42;;;;;;;2.30;1.55;;;0.90;99.90;;;;;;5073079;28;20435;-68
2022/12/09 00:41:09;;;;;;;1.23;1.23;;;0.90;99.90;;;;;;5071284;28;20446;-68
2022/12/09 00:43:36;;;;;;;1.42;1.23;;;0.90;99.90;;;;;;5071456;28;20429;-69
2022/12/09 00:46:03;;;;;;;1.40;1.08;;;0.90;99.90;;;;;;5084001;28;20429;-69
2022/12/09 00:48:33;;;;;;;4.25;2.65;;;0.90;99.90;;;;;;5075241;28;20463;-69
2022/12/09 00:51:00;;;;;;;1.83;1.73;;;0.80;99.90;;;;;;5086435;28;20430;-68
2022/12/09 00:53:27;;;;;;;1.77;1.67;;;0.80;99.90;;;;;;5084984;28;20524;-68
2022/12/09 00:55:54;;;;;;;1.80;1.70;;;0.80;99.90;;;;;;5083076;28;20433;-68
2022/12/09 00:58:22;;;;;;;2.13;1.93;;;0.80;99.90;;;;;;5075031;28;20965;-68
2022/12/09 01:00:49;;;;;;;2.47;1.50;;;0.80;99.90;;;;;;5085394;28;20505;-68
2022/12/09 01:03:17;;;;;;;1.77;1.67;;;0.80;99.90;;;;;;5087568;28;20428;-69
2022/12/09 01:05:47;;;;;;;3.58;1.77;;;0.80;99.90;;;;;;5077471;28;20526;-69
2022/12/09 01:08:16;;;;;;;2.88;1.50;;;0.80;99.90;;;;;;5086622;28;20429;-68
2022/12/09 01:10:44;;;;;;;1.70;1.58;;;0.70;99.90;;;;;;5065694;28;20805;-69
2022/12/09 01:13:12;;;;;;;2.83;1.77;;;0.80;99.90;;;;;;5079656;28;20435;-68
2022/12/09 01:15:40;;;;;;;7.57;1.90;;;0.70;99.90;;;;;;5084606;28;20437;-69
2022/12/09 01:18:07;;;;;;;3.67;1.92;;;0.70;99.90;;;;;;5085656;28;20430;-69
2022/12/09 01:20:34;;;;;;;2.17;1.30;;;0.70;99.90;;;;;;5079692;28;20442;-68
2022/12/09 01:23:02;;;;;;;1.30;1.13;;;0.70;99.90;;;;;;5081509;28;20802;-69
2022/12/09 01:25:29;;;;;;;1.90;1.30;;;0.70;99.90;;;;;;5089285;28;20785;-69
2022/12/09 01:27:56;;;;;;;1.63;1.20;;;0.70;99.90;;;;;;5086379;28;20803;-68
2022/12/09 01:30:23;;;;;;;1.85;1.17;;;0.70;99.90;;;;;;5071379;28;20451;-68
2022/12/09 01:32:53;;;;;;;5.90;1.70;;;0.80;99.90;;;;;;5074088;28;20434;-69
2022/12/09 01:35:20;;;;;;;1.48;1.38;;;0.70;99.90;;;;;;5072049;28;20436;-69
2022/12/09 01:37:47;;;;;;;1.70;1.60;;;0.70;99.90;;;;;;5073229;28;20623;-68
2022/12/09 01:40:16;;;;;;;1.60;1.20;;;0.70;99.90;;;;;;5072719;28;20430;-68
2022/12/09 01:42:43;;;;;;;1.30;1.20;;;0.70;99.90;;;;;;5080008;28;20906;-68
2022/12/09 01:45:20;;;;;;;2.60;2.40;;;0.70;99.90;;;;;;5082144;28;20427;-69
2022/12/09 01:47:51;;;;;;;5.05;1.75;;;0.70;99.90;;;;;;5085785;28;20445;-69
2022/12/09 01:50:22;;;;;;;3.60;1.70;;;0.70;99.90;;;;;;5076234;28;20425;-69
2022/12/09 01:52:49;;;;;;;1.70;1.58;;;0.80;99.90;;;;;;5072082;28;20426;-69
2022/12/09 01:55:16;;;;;;;2.10;1.63;;;0.70;99.90;;;;;;5085142;28;20476;-69
2022/12/09 01:57:44;;;;;;;4.18;2.10;;;0.70;99.90;;;;;;5089065;28;20430;-69
2022/12/09 02:00:12;;;;;;;3.08;1.65;;;0.70;99.90;;;;;;5082373;28;20433;-69
2022/12/09 02:02:41;;;;;;;1.40;1.30;;;0.70;99.90;;;;;;5077469;28;20425;-69
2022/12/09 02:05:10;;;;;;;2.50;2.30;;;0.70;99.90;;;;;;5087118;28;20418;-68
2022/12/09 02:07:37;;;;;;;2.95;1.52;;;0.70;99.90;;;;;;5075415;28;20514;-68
2022/12/09 02:10:17;;;;;;;2.43;1.80;;;0.70;99.90;;;;;;5078639;28;20432;-69
2022/12/09 02:13:02;;;;;;;3.88;2.50;;;0.70;99.90;;;;;;5087129;28;20927;-69
2022/12/09 02:15:51;;;;;;;2.80;1.50;;;0.70;99.90;;;;;;5085321;28;20846;-68
2022/12/09 02:18:39;;;;;;;2.65;2.38;;;0.60;99.90;;;;;;5081501;28;20430;-69
2022/12/09 02:21:15;;;;;;;3.28;1.90;;;0.60;99.90;;;;;;5078561;28;20441;-69
2022/12/09 02:24:04;;;;;;;4.70;2.22;;;0.60;99.90;;;;;;5071243;28;20424;-69
2022/12/09 02:26:42;;;;;;;1.80;1.70;;;0.60;99.90;;;;;;5076894;28;20430;-68
2022/12/09 02:29:40;;;;;;;2.35;2.15;;;0.60;99.90;;;;;;5087898;28;20424;-69
2022/12/09 02:32:24;;;;;;;1.40;1.35;;;0.60;99.90;;;;;;5084027;28;20445;-69
2022/12/09 02:35:08;;;;;;;4.60;1.73;;;0.60;99.90;;;;;;5081213;28;20953;-69
2022/12/09 02:38:13;;;;;;;1.50;1.38;;;0.60;99.90;;;;;;5082164;28;20422;-69
2022/12/09 02:41:02;;;;;;;1.42;1.23;;;0.60;99.90;;;;;;5075431;28;20425;-69
2022/12/09 02:43:37;;;;;;;3.53;1.33;;;0.60;99.90;;;;;;5078853;28;20433;-69
2022/12/09 02:46:13;;;;;;;1.80;1.60;;;0.70;99.90;;;;;;5077362;28;20427;-69
2022/12/09 02:48:44;;;;;;;3.60;2.00;;;0.60;99.90;;;;;;5086959;28;20520;-68
2022/12/09 02:51:16;;;;;;;2.72;1.85;;;0.60;99.90;;;;;;5078160;28;20431;-69
2022/12/09 02:53:45;;;;;;;1.23;1.13;;;0.60;99.90;;;;;;5077987;28;20436;-69
2022/12/09 02:56:13;;;;;;;3.77;1.93;;;0.60;99.90;;;;;;5085630;28;20430;-69
2022/12/09 02:58:40;;;;;;;2.65;1.65;;;0.50;99.90;;;;;;5071056;28;20439;-69
2022/12/09 03:01:23;;;;;;;3.42;2.67;;;0.50;99.90;;;;;;5085624;28;20429;-68
2022/12/09 03:03:53;;;;;;;3.55;2.20;;;0.50;99.90;;;;;;5082648;28;20427;-69
2022/12/09 03:06:27;;;;;;;3.88;2.63;;;0.40;99.90;;;;;;5074388;28;20518;-69
2022/12/09 03:09:08;;;;;;;2.70;2.50;;;0.40;99.90;;;;;;5079152;28;20487;-69
2022/12/09 03:11:39;;;;;;;2.15;1.08;;;0.40;99.90;;;;;;5078980;28;20521;-69
2022/12/09 03:14:34;;;;;;;3.40;2.00;;;0.50;99.90;;;;;;5083304;28;20440;-69
2022/12/09 03:17:23;;;;;;;3.35;1.67;;;0.50;99.90;;;;;;5086021;28;20430;-68
2022/12/09 03:19:55;;;;;;;1.98;1.67;;;0.40;99.90;;;;;;5076747;28;20991;-69
2022/12/09 03:22:27;;;;;;;2.10;1.80;;;0.40;99.90;;;;;;5080737;28;20426;-68
2022/12/09 03:25:09;;;;;;;2.55;1.00;;;0.40;99.90;;;;;;5081314;28;20425;-68
2022/12/09 03:28:10;;;;;;;2.30;1.73;;;0.40;99.90;;;;;;5076235;28;20431;-68
2022/12/09 03:30:40;;;;;;;2.63;2.05;;;0.40;99.90;;;;;;5084138;28;20444;-68
2022/12/09 03:33:08;;;;;;;2.15;1.73;;;0.40;99.90;;;;;;5083086;28;20481;-69
2022/12/09 03:35:40;;;;;;;0.88;0.88;;;0.40;99.90;;;;;;5074131;28;20465;-68
2022/12/09 03:38:11;;;;;;;2.05;1.90;;;0.40;99.90;;;;;;5080249;28;20418;-68
2022/12/09 03:40:39;;;;;;;1.60;1.50;;;0.40;99.90;;;;;;5081628;28;20501;-69
2022/12/09 03:43:13;;;;;;;1.38;1.27;;;0.50;99.90;;;;;;5075669;28;20423;-68
2022/12/09 03:45:42;;;;;;;2.88;1.48;;;0.50;99.90;;;;;;5085721;28;20839;-69
2022/12/09 03:48:10;;;;;;;1.63;1.52;;;0.50;99.90;;;;;;5085445;28;20436;-68
2022/12/09 03:50:57;;;;;;;1.58;1.42;;;0.50;99.90;;;;;;5082998;28;20452;-69
2022/12/09 03:53:43;;;;;;;1.48;0.93;;;0.50;99.90;;;;;;5076565;28;20430;-68
2022/12/09 03:56:15;;;;;;;1.90;1.70;;;0.50;99.90;;;;;;5093476;28;20475;-69
2022/12/09 03:58:45;;;;;;;1.55;1.45;;;0.50;99.90;;;;;;5081906;28;20510;-69
2022/12/09 04:01:13;;;;;;;3.13;1.75;;;0.50;99.90;;;;;;5086614;28;20479;-69
2022/12/09 04:03:43;;;;;;;2.67;1.38;;;0.50;99.90;;;;;;5082896;28;20481;-69
2022/12/09 04:06:10;;;;;;;1.50;1.40;;;0.50;99.90;;;;;;5081343;28;20476;-68
2022/12/09 04:08:37;;;;;;;2.78;1.95;;;0.50;99.90;;;;;;5082016;28;20426;-69
2022/12/09 04:11:07;;;;;;;2.70;1.88;;;0.50;99.90;;;;;;5089049;28;20425;-68
2022/12/09 04:13:37;;;;;;;1.67;1.38;;;0.50;99.90;;;;;;5075227;28;20420;-68
2022/12/09 04:16:16;;;;;;;2.40;1.92;;;0.50;99.90;;;;;;5072638;28;20423;-69
2022/12/09 04:18:42;;;;;;;1.60;1.50;;;0.50;99.90;;;;;;5072668;28;20424;-69
2022/12/09 04:21:12;;;;;;;3.15;2.10;;;0.50;99.90;;;;;;5077372;28;20803;-68
2022/12/09 04:23:38;;;;;;;1.80;1.40;;;0.50;99.90;;;;;;5073926;28;20434;-69
2022/12/09 04:26:13;;;;;;;3.45;1.95;;;0.50;99.90;;;;;;5089601;28;20912;-69
2022/12/09 04:28:40;;;;;;;2.20;1.40;;;0.40;99.90;;;;;;5076320;28;20867;-69
2022/12/09 04:31:12;;;;;;;3.20;1.70;;;0.40;99.90;;;;;;5082818;28;20471;-69
2022/12/09 04:33:40;;;;;;;1.60;1.50;;;0.40;99.90;;;;;;5080459;28;20456;-69
2022/12/09 04:36:10;;;;;;;1.92;1.50;;;0.40;99.90;;;;;;5086049;28;20850;-69
2022/12/09 04:38:37;;;;;;;2.30;1.83;;;0.40;99.90;;;;;;5091562;28;20478;-69
2022/12/09 04:41:04;;;;;;;2.17;1.73;;;0.50;99.90;;;;;;5087068;28;20980;-69
2022/12/09 04:43:31;;;;;;;1.50;1.50;;;0.50;99.90;;;;;;5090959;28;20491;-69
2022/12/09 04:46:03;;;;;;;1.38;1.27;;;0.50;99.90;;;;;;5108448;28;20439;-68
2022/12/09 04:48:30;;;;;;;1.67;1.58;;;0.50;99.90;;;;;;5082122;28;20424;-68
2022/12/09 04:50:58;;;;;;;4.60;1.90;;;0.50;99.90;;;;;;5088238;28;20453;-69
2022/12/09 04:53:26;;;;;;;1.48;1.38;;;0.50;99.90;;;;;;5084253;28;20426;-67
2022/12/09 04:56:20;;;;;;;1.75;1.65;;;0.50;99.90;;;;;;5084812;28;20427;-66
2022/12/09 04:58:48;;;;;;;3.03;1.98;;;0.50;99.90;;;;;;5090178;28;20426;-66
2022/12/09 05:01:18;;;;;;;1.73;1.63;;;0.50;99.90;;;;;;5084233;28;20425;-69
2022/12/09 05:03:51;;;;;;;2.20;1.40;;;0.50;99.90;;;;;;5086718;28;20896;-68
2022/12/09 05:06:21;;;;;;;1.13;1.07;;;0.50;99.90;;;;;;5085351;28;20478;-69
2022/12/09 05:08:51;;;;;;;2.33;1.90;;;0.40;99.90;;;;;;5078631;28;20464;-69
2022/12/09 05:11:19;;;;;;;1.77;1.67;;;0.50;99.90;;;;;;5072753;28;20479;-69
2022/12/09 05:13:50;;;;;;;4.72;1.88;;;0.50;99.90;;;;;;5078052;28;20427;-69
2022/12/09 05:16:18;;;;;;;2.25;2.05;;;0.50;99.90;;;;;;5070183;28;20682;-68
2022/12/09 05:18:47;;;;;;;1.92;1.83;;;0.50;99.90;;;;;;5084645;28;20898;-69
2022/12/09 05:21:19;;;;;;;2.10;1.75;;;0.50;99.90;;;;;;5079133;28;20434;-69
2022/12/09 05:23:48;;;;;;;2.10;1.98;;;0.50;99.90;;;;;;5077631;28;20427;-69
2022/12/09 05:26:18;;;;;;;2.65;1.67;;;0.50;99.90;;;;;;5083783;28;20978;-69
2022/12/09 05:28:45;;;;;;;1.10;1.02;;;0.50;99.90;;;;;;5067293;28;20426;-69
2022/12/09 05:31:16;;;;;;;1.83;1.57;;;0.50;99.90;;;;;;5078113;28;20426;-69
2022/12/09 05:33:44;;;;;;;2.05;1.85;;;0.50;99.90;;;;;;5076684;28;20441;-69
2022/12/09 05:36:14;;;;;;;1.83;1.33;;;0.50;99.90;;;;;;5071320;28;21287;-66
2022/12/09 05:38:42;;;;;;;2.25;1.70;;;0.40;99.90;;;;;;5072834;28;20439;-68
2022/12/09 05:41:09;;;;;;;1.85;1.45;;;0.40;99.90;;;;;;5079570;28;20428;-69
2022/12/09 05:43:36;;;;;;;1.90;1.80;;;0.40;99.90;;;;;;5083260;28;20426;-67
2022/12/09 05:46:05;;;;;;;1.70;1.60;;;0.30;99.90;;;;;;5081818;28;20430;-67
2022/12/09 05:48:36;;;;;;;2.00;1.67;;;0.30;99.90;;;;;;5070764;28;20492;-67
2022/12/09 05:51:10;;;;;;;1.75;1.65;;;0.20;99.90;;;;;;5078018;28;20935;-67
2022/12/09 05:53:37;;;;;;;1.95;1.85;;;0.20;99.90;;;;;;5083940;28;20433;-69
2022/12/09 05:56:06;;;;;;;4.80;2.72;;;0.20;99.90;;;;;;5086112;28;20436;-67
2022/12/09 05:58:33;;;;;;;4.20;2.33;;;0.10;99.90;;;;;;5080884;28;20421;-67
2022/12/09 06:01:05;;;;;;;5.13;3.88;;;0.10;99.90;;;;;;5064160;28;20446;-66
2022/12/09 06:03:33;;;;;;;2.67;2.20;;;0.10;99.90;;;;;;5080589;28;20509;-67
2022/12/09 06:06:12;;;;;;;3.58;1.83;;;0.10;99.90;;;;;;5079005;28;20919;-67
2022/12/09 06:08:42;;;;;;;2.90;1.90;;;0.10;99.90;;;;;;5076417;28;20431;-67
2022/12/09 06:11:20;;;;;;;3.60;1.95;;;0.00;99.90;;;;;;5081375;28;20430;-68
2022/12/09 06:13:49;;;;;;;1.70;1.60;;;0.00;99.90;;;;;;5084402;28;20436;-67
2022/12/09 06:16:19;;;;;;;1.60;1.52;;;0.00;99.90;;;;;;5087432;28;20438;-67
2022/12/09 06:18:47;;;;;;;2.88;2.03;;;-0.10;99.90;;;;;;5079511;28;21076;-67
2022/12/09 06:21:16;;;;;;;1.75;1.65;;;-0.10;99.90;;;;;;5078364;28;20431;-67
2022/12/09 06:23:43;;;;;;;1.25;1.17;;;-0.20;99.90;;;;;;5092507;28;20809;-67
2022/12/09 06:26:30;;;;;;;2.47;1.90;;;-0.20;99.90;;;;;;5092738;28;20510;-67
2022/12/09 06:29:00;;;;;;;2.30;1.65;;;-0.20;99.90;;;;;;5076222;28;20432;-67
2022/12/09 06:31:27;;;;;;;4.30;2.25;;;-0.30;99.90;;;;;;5072854;28;20433;-67
2022/12/09 06:33:57;;;;;;;3.63;1.55;;;-0.30;99.90;;;;;;5080905;28;21146;-67
2022/12/09 06:36:27;;;;;;;3.33;2.40;;;-0.20;99.90;;;;;;5083308;28;20827;-67
2022/12/09 06:38:57;;;;;;;2.80;1.90;;;-0.20;99.90;;;;;;5082604;28;20447;-67
2022/12/09 06:41:31;;;;;;;3.05;2.17;;;-0.20;99.90;;;;;;5077134;28;20431;-67
2022/12/09 06:43:58;;;;;;;2.63;1.73;;;-0.20;99.90;;;;;;5081565;28;20422;-67
2022/12/09 06:46:27;;;;;;;2.65;2.20;;;-0.20;99.90;;;;;;5082096;28;20430;-69
2022/12/09 06:48:55;;;;;;;3.20;2.15;;;-0.10;99.90;;;;;;5086778;28;20517;-66
2022/12/09 06:51:23;;;;;;;2.65;2.17;;;-0.10;99.90;;;;;;5086364;28;20426;-67
2022/12/09 06:53:51;;;;;;;2.03;1.83;;;-0.10;99.90;;;;;;5070493;28;20500;-66
2022/12/09 06:56:18;;;;;;;5.47;3.08;;;-0.10;99.90;;;;;;5072466;28;20472;-67
2022/12/09 06:58:46;;;;;;;3.63;1.98;;;-0.10;99.90;;;;;;5083957;28;20864;-66
2022/12/09 07:01:17;;;;;;;1.77;1.67;;;-0.10;99.90;;;;;;5074763;28;20500;-67
2022/12/09 07:03:49;;;;;;;4.83;2.33;;;-0.20;99.90;;;;;;5088706;28;20421;-66
2022/12/09 07:06:19;;;;;;;3.05;1.92;;;-0.30;99.90;;;;;;5084128;28;20562;-67
2022/12/09 07:08:46;;;;;;;4.80;1.97;;;-0.30;99.90;;;;;;5079416;28;20435;-67
2022/12/09 07:11:14;;;;;;;2.25;1.98;;;-0.40;99.90;;;;;;5082793;28;20465;-66
2022/12/09 07:13:41;;;;;;;4.53;1.92;;;-0.40;99.90;;;;;;5087488;28;20441;-66
2022/12/09 07:16:08;;;;;;;2.53;2.17;;;-0.50;99.90;;;;;;5077021;28;20514;-67
2022/12/09 07:18:36;;;;;;;2.28;1.95;;;-0.50;99.90;;;;;;5080172;28;20508;-67
2022/12/09 07:21:13;;;;;;;2.73;1.77;;;-0.60;99.90;;;;;;5080208;28;20422;-69
2022/12/09 07:23:41;;;;;;;2.95;2.08;;;-0.70;99.90;;;;;;5088536;28;20549;-67
2022/12/09 07:26:08;;;;;;;3.78;2.40;;;-0.80;99.90;;;;;;5084655;28;20453;-67
2022/12/09 07:28:38;;;;;;;4.68;2.67;;;-0.90;99.90;;;;;;5083853;28;20490;-67
2022/12/09 07:31:05;;;;;;;5.40;2.47;;;-1.00;99.90;;;;;;5076716;28;21003;-67
2022/12/09 07:33:32;;;;;;;4.13;1.75;;;-1.10;99.90;;;;;;5096678;28;20459;-67
2022/12/09 07:35:59;;;;;;;6.95;1.85;;;-1.10;99.90;;;;;;5082603;28;20458;-67
2022/12/09 07:38:29;;;;;;;4.25;1.70;;;-1.10;99.90;;;;;;5085999;28;20426;-67
2022/12/09 07:41:04;;;;;;;3.78;1.45;;;-1.00;99.90;;;;;;5077974;28;20419;-67
2022/12/09 07:43:35;;;;;;;1.30;1.20;;;-0.90;99.90;;;;;;5079040;28;20480;-67
2022/12/09 07:46:06;;;;;;;2.97;2.17;;;-0.90;99.90;;;;;;5073347;28;20495;-67
2022/12/09 07:48:33;;;;;;;1.70;1.52;;;-0.90;99.90;;;;;;5073294;28;20437;-67
2022/12/09 07:51:02;;;;;;;1.67;1.33;;;-0.90;99.90;;;;;;5073150;28;20573;-67
2022/12/09 07:53:29;;;;;;;1.25;1.15;;;-0.90;99.90;;;;;;5073196;28;20423;-67
2022/12/09 07:56:05;;;;;;;2.90;1.63;;;-0.90;99.90;;;;;;5093029;28;20479;-67
2022/12/09 07:58:33;;;;;;;1.20;1.08;;;-0.90;99.90;;;;;;5093023;28;20487;-67
2022/12/09 08:01:06;;;;;;;8.63;1.92;;;-0.80;99.90;;;;;;5073247;28;20507;-67
2022/12/09 08:03:33;;;;;;;1.40;1.37;;;-0.70;99.90;;;;;;5073748;28;20591;-67
2022/12/09 08:06:00;;;;;;;2.42;1.60;;;-0.70;99.90;;;;;;5090808;28;20430;-67
2022/12/09 08:08:28;;;;;;;1.77;1.58;;;-0.70;99.90;;;;;;5091986;28;20425;-67
2022/12/09 08:10:55;;;;;;;1.70;1.00;;;-0.70;99.90;;;;;;5090007;28;20430;-67
2022/12/09 08:13:22;;;;;;;1.77;1.67;;;-0.60;99.90;;;;;;5092581;28;20796;-67
2022/12/09 08:15:49;;;;;;;3.00;1.85;;;-0.70;99.90;;;;;;5090741;28;20924;-67
2022/12/09 08:18:16;;;;;;;2.72;1.52;;;-0.70;99.90;;;;;;5092976;28;20435;-67
2022/12/09 08:20:43;;;;;;;3.60;1.85;;;-0.70;99.90;;;;;;5093308;28;20526;-67
2022/12/09 08:23:15;;;;;;;2.00;1.90;;;-0.70;99.90;;;;;;5088697;28;21214;-67
2022/12/09 08:25:42;;;;;;;3.17;1.55;;;-0.70;99.90;;;;;;5080684;28;20459;-67
2022/12/09 08:28:10;;;;;;;3.30;1.98;;;-0.70;99.90;;;;;;5086446;28;20432;-67
2022/12/09 08:30:37;;;;;;;3.07;1.27;;;-0.70;99.90;;;;;;5092568;28;20425;-67
2022/12/09 08:33:04;;;;;;;3.42;2.40;;;-0.60;99.90;;;;;;5084947;28;20435;-68
2022/12/09 08:35:31;;;;;;;2.10;2.00;;;-0.60;99.90;;;;;;5072733;28;20517;-68
2022/12/09 08:37:58;;;;;;;2.07;1.40;;;-0.60;99.90;;;;;;5071533;28;20449;-66
2022/12/09 08:40:25;;;;;;;2.17;1.55;;;-0.50;99.90;;;;;;5071465;28;20427;-66
2022/12/09 08:42:52;;;;;;;1.45;1.02;;;-0.50;99.90;;;;;;5071423;28;20438;-68
2022/12/09 08:45:20;;;;;;;1.95;1.85;;;-0.50;99.90;;;;;;5071969;28;20427;-68
2022/12/09 08:47:47;;;;;;;1.35;1.23;;;-0.40;99.90;;;;;;5071702;28;20433;-68
2022/12/09 08:50:14;;;;;;;5.45;1.90;;;-0.30;99.90;;;;;;5072184;28;20427;-68
2022/12/09 08:52:42;;;;;;;1.42;1.05;;;-0.30;99.90;;;;;;5072132;28;20522;-66
2022/12/09 08:55:09;;;;;;;5.70;2.45;;;-0.20;99.90;;;;;;5083565;28;20896;-66
2022/12/09 08:57:36;;;;;;;4.00;2.10;;;-0.20;99.90;;;;;;5075905;28;20429;-66
2022/12/09 09:00:06;;;;;;;2.27;2.07;;;-0.10;99.90;;;;;;5091103;28;20837;-66
2022/12/09 09:02:37;;;;;;;4.50;2.80;;;0.10;99.90;;;;;;5092300;28;20516;-66
2022/12/09 09:05:04;;;;;;;1.80;1.70;;;0.20;99.90;;;;;;5091808;28;20564;-66
2022/12/09 09:07:34;;;;;;;2.17;1.65;;;0.30;99.90;;;;;;5091686;28;21118;-66
2022/12/09 09:10:02;;;;;;;4.30;2.20;;;0.40;99.90;;;;;;5088944;28;20495;-66
2022/12/09 09:12:30;;;;;;;2.80;2.03;;;0.50;99.90;;;;;;5071454;28;20481;-66
2022/12/09 09:15:03;;;;;;;2.33;2.13;;;0.60;99.90;;;;;;5071348;28;20431;-66
2022/12/09 09:17:33;;;;;;;3.25;1.83;;;0.70;99.90;;;;;;5070811;28;20445;-66
2022/12/09 09:20:00;;;;;;;2.63;2.42;;;0.80;99.90;;;;;;5071786;28;20428;-66
2022/12/09 09:22:28;;;;;;;3.07;2.63;;;0.80;99.90;;;;;;5071608;28;20419;-66
2022/12/09 09:24:55;;;;;;;3.75;2.05;;;0.90;99.90;;;;;;5070218;28;20459;-66
2022/12/09 09:27:25;;;;;;;2.38;2.17;;;1.00;99.90;;;;;;5077819;28;20414;-67
2022/12/09 09:29:51;;;;;;;2.40;2.20;;;1.10;99.90;;;;;;5081066;28;20426;-66
2022/12/09 09:32:18;;;;;;;3.25;2.33;;;1.10;99.90;;;;;;5071221;28;20508;-66
2022/12/09 09:34:48;;;;;;;2.53;2.33;;;1.10;99.90;;;;;;5070632;28;20460;-66
2022/12/09 09:37:18;;;;;;;3.92;1.90;;;1.10;99.90;;;;;;5078857;28;20421;-68
2022/12/09 09:39:46;;;;;;;3.50;2.58;;;1.10;99.90;;;;;;5091086;28;20928;-67
2022/12/09 09:42:34;;;;;;;3.63;2.40;;;1.10;99.90;;;;;;5091397;28;20464;-66
2022/12/09 09:45:09;;;;;;;4.43;2.22;;;1.20;99.90;;;;;;5087033;28;20432;-66
2022/12/09 09:47:42;;;;;;;4.35;2.80;;;1.30;99.90;;;;;;5069869;28;20427;-66
2022/12/09 09:50:36;;;;;;;2.30;2.10;;;1.50;99.90;;;;;;5071216;28;20437;-66
2022/12/09 09:53:29;;;;;;;4.45;2.05;;;1.60;99.90;;;;;;5069713;28;20926;-67
2022/12/09 09:56:03;;;;;;;4.78;2.58;;;1.80;99.90;;;;;;5070753;28;20498;-66
2022/12/09 09:58:36;;;;;;;2.28;1.88;;;2.10;99.90;;;;;;5080974;28;20469;-66
2022/12/09 10:01:12;;;;;;;4.60;2.03;;;2.30;99.90;;;;;;5087939;28;21052;-67
2022/12/09 10:03:56;;;;;;;7.47;2.63;;;2.40;99.90;;;;;;5090199;28;20425;-67
2022/12/09 10:06:58;;;;;;;3.65;2.00;;;2.50;99.90;;;;;;5087766;28;20425;-67
2022/12/09 10:09:45;;;;;;;5.07;2.45;;;2.70;99.90;;;;;;5078020;28;20788;-67
2022/12/09 10:12:35;;;;;;;2.88;2.03;;;3.20;99.90;;;;;;5083311;28;20469;-67
2022/12/09 10:15:21;;;;;;;3.58;2.22;;;3.90;99.90;;;;;;5069612;28;20435;-67
2022/12/09 10:17:54;;;;;;;2.15;1.80;;;4.50;99.90;;;;;;5070654;28;20933;-67
2022/12/09 10:20:26;;;;;;;1.67;1.58;;;4.70;99.90;;;;;;5070676;28;20423;-67
2022/12/09 10:23:01;;;;;;;5.95;2.22;;;4.70;99.90;;;;;;5070156;28;20431;-67
2022/12/09 10:25:35;;;;;;;2.40;2.03;;;4.60;99.90;;;;;;5070220;28;20472;-67
2022/12/09 10:28:16;;;;;;;1.55;1.40;;;4.40;99.90;;;;;;5070100;28;20432;-67
2022/12/09 10:30:44;;;;;;;4.25;1.58;;;4.30;99.90;;;;;;5071322;28;20431;-67
2022/12/09 10:33:13;;;;;;;1.98;1.80;;;4.20;99.90;;;;;;5076001;28;20456;-67
2022/12/09 10:35:41;;;;;;;3.75;2.00;;;4.00;99.90;;;;;;5090398;28;20436;-67
2022/12/09 10:38:15;;;;;;;3.63;1.77;;;3.80;99.90;;;;;;5085424;28;20564;-67
2022/12/09 10:40:44;;;;;;;1.95;1.52;;;3.50;99.90;;;;;;5090478;28;20426;-67
2022/12/09 10:43:37;;;;;;;1.45;1.17;;;3.30;99.90;;;;;;5087045;28;20752;-67
2022/12/09 10:46:04;;;;;;;3.10;2.17;;;3.10;99.90;;;;;;5075495;28;20428;-67
2022/12/09 10:48:47;;;;;;;3.67;1.77;;;2.80;99.90;;;;;;5089975;28;20433;-67
2022/12/09 10:51:35;;;;;;;2.35;1.77;;;2.80;99.90;;;;;;5070178;28;20450;-67
2022/12/09 10:54:08;;;;;;;2.63;2.20;;;2.90;99.90;;;;;;5074964;28;20476;-67
2022/12/09 10:56:59;;;;;;;1.75;1.45;;;2.90;99.90;;;;;;5085170;28;20524;-67
2022/12/09 10:59:30;;;;;;;4.45;2.13;;;2.90;99.90;;;;;;5069726;28;20479;-67
2022/12/09 11:02:00;;;;;;;2.00;1.40;;;2.90;99.90;;;;;;5071830;28;20423;-67
2022/12/09 11:04:36;;;;;;;2.00;1.90;;;2.80;99.90;;;;;;5068520;28;20424;-67
2022/12/09 11:07:18;;;;;;;1.63;1.52;;;2.80;99.90;;;;;;5068049;28;20946;-67
2022/12/09 11:10:14;;;;;;;1.35;1.25;;;2.90;99.90;;;;;;5069797;28;20450;-67
2022/12/09 11:12:49;;;;;;;3.70;1.73;;;3.00;99.90;;;;;;5079395;28;20461;-67
2022/12/09 11:15:39;;;;;;;1.95;1.85;;;3.10;99.90;;;;;;5085307;28;20433;-67
2022/12/09 11:18:22;;;;;;;2.08;1.73;;;3.30;99.90;;;;;;5089541;28;20469;-67
2022/12/09 11:20:58;;;;;;;5.40;1.60;;;3.40;99.90;;;;;;5087085;28;20434;-68
2022/12/09 11:23:28;;;;;;;2.08;1.98;;;3.50;99.90;;;;;;5070762;28;20419;-68
2022/12/09 11:26:21;;;;;;;2.65;1.38;;;3.50;99.90;;;;;;5069002;28;20431;-67
2022/12/09 11:29:03;;;;;;;2.37;1.90;;;3.50;99.90;;;;;;5089165;28;20504;-67
2022/12/09 11:31:38;;;;;;;1.80;1.70;;;3.30;99.90;;;;;;5089885;28;20428;-67
2022/12/09 11:34:22;;;;;;;2.28;1.77;;;3.20;99.90;;;;;;5070907;28;20427;-68
2022/12/09 11:36:52;;;;;;;2.72;1.23;;;3.00;99.90;;;;;;5068040;28;20802;-69
2022/12/09 11:39:22;;;;;;;1.25;1.17;;;2.80;99.90;;;;;;5081403;28;20504;-69
2022/12/09 11:42:13;;;;;;;2.40;1.50;;;2.70;99.90;;;;;;5089699;28;20448;-67
2022/12/09 11:45:36;;;;;;;2.20;1.65;;;2.60;99.90;;;;;;5085285;28;20417;-68
2022/12/09 11:48:28;;;;;;;2.85;1.27;;;2.80;99.90;;;;;;5087423;28;20924;-67
2022/12/09 11:51:05;;;;;;;2.38;1.58;;;3.10;99.90;;;;;;5089405;28;20796;-68
2022/12/09 11:53:37;;;;;;;2.70;1.83;;;3.30;99.90;;;;;;5084090;28;20422;-68
2022/12/09 11:56:07;;;;;;;1.42;1.40;;;3.40;99.90;;;;;;5074214;28;20435;-68
2022/12/09 11:58:50;;;;;;;3.40;1.95;;;3.60;99.90;;;;;;5075011;28;20458;-68
2022/12/09 12:01:23;;;;;;;2.58;1.50;;;4.20;99.90;;;;;;5078603;28;20813;-68
2022/12/09 12:04:04;;;;;;;1.98;1.45;;;4.40;99.90;;;;;;5068689;28;20538;-69
2022/12/09 12:06:41;;;;;;;1.75;1.63;;;4.70;99.90;;;;;;5069385;28;20437;-69
2022/12/09 12:09:26;;;;;;;3.78;2.33;;;5.10;99.90;;;;;;5069450;28;20465;-68
2022/12/09 12:12:32;;;;;;;1.90;1.42;;;5.50;99.90;;;;;;5067711;28;20930;-68
2022/12/09 12:15:09;;;;;;;2.13;1.85;;;5.70;99.90;;;;;;5067885;28;20905;-68
2022/12/09 12:17:51;;;;;;;2.78;1.88;;;5.70;99.90;;;;;;5070954;28;20433;-68
2022/12/09 12:20:17;;;;;;;4.57;1.85;;;5.80;99.90;;;;;;5072482;28;20829;-68
2022/12/09 12:23:29;;;;;;;1.93;1.83;;;5.80;99.90;;;;;;5079016;28;20810;-68
2022/12/09 12:26:22;;;;;;;7.10;3.28;;;5.40;99.90;;;;;;5050629;28;20941;-68
2022/12/09 12:28:57;;;;;;;1.70;1.60;;;5.30;99.90;;;;;;5068135;28;20431;-68
2022/12/09 12:31:49;;;;;;;1.85;1.75;;;5.50;99.90;;;;;;5067780;28;20521;-68
2022/12/09 12:34:43;;;;;;;1.70;1.42;;;5.80;99.90;;;;;;5048885;28;20965;-68
2022/12/09 12:37:47;;;;;;;2.35;2.15;;;6.00;99.90;;;;;;5058515;28;20431;-68
2022/12/09 12:40:46;;;;;;;1.95;1.70;;;5.80;99.90;;;;;;5066079;28;20459;-67
2022/12/09 12:46:21;;;;;;;3.45;1.40;;;5.50;99.90;;;;;;5065052;28;20427;-67
2022/12/09 12:49:18;;;;;;;3.22;2.20;;;5.60;99.90;;;;;;5060079;28;20469;-67
2022/12/09 12:51:54;;;;;;;3.45;1.75;;;5.60;99.90;;;;;;5064566;28;20435;-67
2022/12/09 12:54:58;;;;;;;1.70;1.40;;;5.60;99.90;;;;;;5050437;28;20430;-67
2022/12/09 12:57:33;;;;;;;2.25;1.80;;;5.20;99.90;;;;;;5065083;28;20430;-69
2022/12/09 13:00:15;;;;;;;3.45;1.50;;;5.20;99.90;;;;;;5066270;28;20493;-69
2022/12/09 13:03:27;;;;;;;1.87;1.77;;;5.10;99.90;;;;;;5078385;28;20442;-68
2022/12/09 13:05:56;;;;;;;2.83;1.67;;;5.10;99.90;;;;;;5062182;28;20452;-68
2022/12/09 13:08:55;;;;;;;2.03;1.92;;;4.80;99.90;;;;;;5081671;28;20841;-68
2022/12/09 13:12:06;;;;;;;1.75;1.33;;;4.80;99.90;;;;;;5081806;28;20499;-68
2022/12/09 13:14:50;;;;;;;4.68;1.98;;;4.40;99.90;;;;;;5074174;28;20443;-68
2022/12/09 13:17:20;;;;;;;1.50;1.23;;;4.10;99.90;;;;;;5083817;28;20433;-68
2022/12/09 13:19:53;;;;;;;1.55;1.45;;;4.00;99.90;;;;;;5083406;28;20437;-68
2022/12/09 13:22:25;;;;;;;2.58;1.58;;;3.90;99.90;;;;;;5081462;28;20514;-68
2022/12/09 13:25:14;;;;;;;1.70;1.60;;;3.80;99.90;;;;;;5079330;28;20456;-68
2022/12/09 13:27:49;;;;;;;2.10;1.27;;;3.70;99.90;;;;;;5084112;28;20897;-68
2022/12/09 13:30:32;;;;;;;2.00;1.70;;;3.40;99.90;;;;;;5088258;28;20499;-68
2022/12/09 13:33:24;;;;;;;2.60;1.33;;;3.00;99.90;;;;;;5090342;28;20448;-68